Aeroporto :
LOGIN :

Iscrizione | Disclaimer

   EN    FR    IT 

 










Sommario :    VFR   VFR Marginale   IFR   IFR Intensivo   IFR Molto Intensivo
Visibilità : 
Base nubi : 
>= 8 km
>= 3000ft
5 / 8 km
1000 / 3000 ft
1500m / 5 km
500 / 1000 ft
800 / 1500m
200 / 500 ft
< 800m
< 200 ft
Simboli :   Temporali  Nebbia  Neve Forte  Precipitazioni Forti  Vento > 20 kt
SIGMETs :   Varie  Temporali  Ghiacco  Turbolenza  Onda orograficha  Ceneri Vulcaniche






- Altitudine del aeroporto : 404 ft
- Codice IATA : WRO


EPWR - Wroclaw

ULTIMO METAR :
  • 021300Z 25007KT 180V290 CAVOK 11/M03 Q1011

METARs OBSOLETI :
  • 021230Z 28007KT 220V010 CAVOK 10/M03 Q1011
  • 021200Z 31011KT 270V330 CAVOK 11/M02 Q1012
  • 021130Z 31011KT CAVOK 10/M03 Q1012
  • 021100Z 29009KT 250V330 9999 FEW048 09/M03 Q1013
  • 021030Z 30013KT 9999 SCT047 08/M03 Q1013

TAF TAF EPWR
Valido dal 02 a 12 ore il 03 a 12 ore UTC


021130Z 0212/0312 28010KT 9999 SCT046
BECMG 0217/0220 22004KT
BECMG 0302/0305 28010KT
TEMPO 0305/0310 28015G25KT 4000 SHRA BKN014CB
TEMPO 0310/0312 28015G25KT SCT020TCU



MetMap, La meteo Aeronautica in un colpo d'occhio ! - Copyright ORBIFLY Dicembre 2007 - Disclaimer

ORBIFLY MET'MAP TEAM :

Programmazione e sviluppo : Alexandra Zaïnal
Concezione : Baudouin d'Aumeries
Aiuto per la programmazione : Marc-Olivier Méhu
Supporto tecnico e logistico : Manuel Goepfert
Aiuto per la traduzione : Arnaldo La Scala

Contatto : metmap@orbifly.com




FONTI E CREDITI :

   NOAA